San Fernando, Trinidad and Tobago
Current Conditions -  °F | °C
As of 6:00 PM on Friday 31 Oct 2014 (Local Time) from TTPP Reporting Station
Few Clouds Few Clouds  
Wind Chill: 82°   Ceiling: Unl
Heat Index: 89°   Visibility: 6mi
Dew Point: 75°   Wind: 6mph
Humidity: 79%   Direction: 110°ESE
Pressure: 29.83"   Gusts: NA
Location:  10.25°N, 61.46°W
Report Text: TTPP 312200Z 11005KT 9999 FEW015 28/24 Q1010 NOSIG
Loading
Personal Weather Stations






























Interactive Weather Map New forecast layout! Learn more

10-Day Weather Forecast

Advertisements
Track Severe Weather on mobile